Aérodrome :
LOGIN :

S'inscrire | Disclaimer

   EN    FR    IT 

 










Légende :    VFR   VFR Marginal   IFR   IFR Intensif   IFR Très Intensif
Visi : 
Plafond : 
>= 8 km
>= 3000ft
5 à 8 km
1000 à 3000 ft
1500m à 5 km
500 à 1000 ft
800 à 1500m
200 à 500 ft
< 800m
< 200 ft
Symboles :   Orages  Brouillard  Fortes neiges  Fortes précipitations  Vent > 20 kt
SIGMETs :   Divers  Orages  Givrage  Turbulence  Onde Orograph.  Cendres Volcan.







- Altitude de l'aérodrome : 143 ft


LGEL - Elefsis

DERNIER METAR :
  • 182020Z 00000KT 8000 -RA FEW018 BKN025 BKN070 13/13 Q1010

METARs EXPIRÉS :
  • 181950Z 00000KT 9999 FEW018 BKN025 BKN070 14/13 Q1010
  • 181920Z 00000KT 9999 BKN025 BKN070 14/13 Q1009
  • 181850Z 00000KT 9999 BKN025 BKN070 14/13 Q1009
  • 181820Z 00000KT 9999 BKN025 BKN070 13/12 Q1009

TAF TAF LGEL
Valide du 18 à 18h jusqu'au 19 à 18h UTC


181700Z 1818/1918 VRB04KT 9999 FEW015 SCT025 BKN070
PROB40
TEMPO 1818/1900 5000 RA SCT008 BKN020 OVC060
PROB30
TEMPO 1818/1821 3000 TSRA SCT008 SCT018CB BKN020 OVC060
BECMG 1818/1820 19018KT
BECMG 1907/1909 28010KT
Pas de NOTAMs connus pour ce terrain.
2 SIGMETs publiés pour la FIR Athinai (LGGG) :
 
Orages noyés dans la masse
LGGG SIGMET 16 VALID 182045/182245 LGAT
LGGG ATHINAI FIR/UIR EMBD TS OBS SE OF LINE N3800 E02220 - N3930 E02540 MNLY OVER MAR MOV NE NC=
Annulation du SIGMET 13
LGGG SIGMET 15 VALID 181850/182030 LGAT
LGGG ATHINAI FIR/UIR CNL SIGMET 13 181830/182030=



MET'MAP, la Météo Aéronautique d'un coup d'oeil ! - Copyright ORBIFLY Décembre 2007 - Disclaimer

ORBIFLY MET'MAP TEAM :

Programmation & Développement : Alexandra Zaïnal
Conception & Développement : Baudouin d'Aumeries
Co-Programmation & Développement : Marc-Olivier Méhu
Soutien technique & logistique : Manuel Goepfert

Contact : metmap@orbifly.com




SOURCES & CREDITS :

   NOAA